createdAt,value
2019-06-15T00:00:06.862Z,1010.1
2019-06-15T00:01:06.882Z,1010.07
2019-06-15T00:02:06.907Z,1010.04
2019-06-15T00:03:06.936Z,1010.01
2019-06-15T00:04:06.959Z,1009.99
2019-06-15T00:05:06.986Z,1009.94
2019-06-15T00:06:07.010Z,1009.91
2019-06-15T00:07:07.043Z,1009.9
2019-06-15T00:08:07.061Z,1009.9
2019-06-15T00:09:07.095Z,1009.83
2019-06-15T00:10:07.110Z,1009.86
2019-06-15T00:11:07.135Z,1009.85
2019-06-15T00:12:07.177Z,1009.82
2019-06-15T00:13:07.184Z,1009.81
2019-06-15T00:14:07.210Z,1009.79
2019-06-15T00:15:07.235Z,1009.81
2019-06-15T00:16:07.261Z,1009.8
2019-06-15T00:17:07.370Z,1009.81
2019-06-15T00:18:07.310Z,1009.75
2019-06-15T00:19:07.335Z,1009.77
2019-06-15T00:20:07.361Z,1009.76
2019-06-15T00:21:07.386Z,1009.75
2019-06-15T00:22:07.411Z,1009.73
2019-06-15T00:23:07.442Z,1009.7
2019-06-15T00:24:07.462Z,1009.73
2019-06-15T00:25:07.487Z,1009.66
2019-06-15T00:26:07.512Z,1009.64
2019-06-15T00:27:07.536Z,1009.65
2019-06-15T00:28:07.563Z,1009.66
2019-06-15T00:29:07.587Z,1009.62
2019-06-15T00:30:07.612Z,1009.62
2019-06-15T00:32:07.663Z,1009.61
2019-06-15T00:33:07.710Z,1009.59
2019-06-15T00:34:07.713Z,1009.62
2019-06-15T00:35:07.740Z,1009.62
2019-06-15T00:36:07.763Z,1009.63
2019-06-15T00:37:07.789Z,1009.56
2019-06-15T00:38:07.812Z,1009.57
2019-06-15T00:39:07.845Z,1009.52
2019-06-15T00:40:07.863Z,1009.51
2019-06-15T00:41:07.888Z,1009.47
2019-06-15T00:42:07.914Z,1009.48
2019-06-15T00:43:07.938Z,1009.43
2019-06-15T00:44:07.964Z,1009.41
2019-06-15T00:45:07.989Z,1009.4
2019-06-15T00:46:08.014Z,1009.34
2019-06-15T00:48:08.065Z,1009.35
2019-06-15T00:49:08.089Z,1009.31
2019-06-15T00:50:08.114Z,1009.29
2019-06-15T00:51:08.139Z,1009.28
2019-06-15T00:52:08.166Z,1009.25
2019-06-15T00:53:08.190Z,1009.22
2019-06-15T00:54:08.220Z,1009.24
2019-06-15T00:55:08.241Z,1009.24
2019-06-15T00:56:08.267Z,1009.21
2019-06-15T00:57:08.290Z,1009.19
2019-06-15T00:58:08.315Z,1009.21
2019-06-15T00:59:08.341Z,1009.18
2019-06-15T01:00:08.366Z,1009.16
2019-06-15T01:01:08.390Z,1009.13
2019-06-15T01:02:08.415Z,1009.1
2019-06-15T01:04:08.465Z,1009.06
2019-06-15T01:05:08.493Z,1009.14
2019-06-15T01:06:08.521Z,1009.12
2019-06-15T01:07:08.540Z,1009.06
2019-06-15T01:08:08.566Z,1009.07
2019-06-15T01:09:08.591Z,1009.12
2019-06-15T01:10:08.619Z,1009.12
2019-06-15T01:11:08.641Z,1009.12
2019-06-15T01:12:08.666Z,1009.12
2019-06-15T01:13:08.706Z,1009.08
2019-06-15T01:14:08.716Z,1009.08
2019-06-15T01:15:08.740Z,1009.04
2019-06-15T01:16:08.766Z,1009.02
2019-06-15T01:17:08.793Z,1008.99
2019-06-15T01:18:08.816Z,1009.03
2019-06-15T01:20:08.866Z,1008.98
2019-06-15T01:21:08.904Z,1008.96
2019-06-15T01:22:08.916Z,1008.95
2019-06-15T01:23:08.941Z,1008.98
2019-06-15T01:24:08.969Z,1008.96
2019-06-15T01:25:08.990Z,1008.97
2019-06-15T01:26:09.017Z,1008.94
2019-06-15T01:27:09.041Z,1008.9
2019-06-15T01:28:09.066Z,1008.82
2019-06-15T01:29:09.090Z,1008.85
2019-06-15T01:30:09.186Z,1008.72
2019-06-15T01:31:09.143Z,1008.71
2019-06-15T01:32:09.168Z,1008.7
2019-06-15T01:33:09.192Z,1008.66
2019-06-15T01:35:09.242Z,1008.72
2019-06-15T01:36:09.273Z,1008.75
2019-06-15T01:37:09.292Z,1008.73
2019-06-15T01:38:09.370Z,1008.71
2019-06-15T01:39:09.342Z,1008.7
2019-06-15T01:40:09.370Z,1008.67
2019-06-15T01:41:09.392Z,1008.65
2019-06-15T01:42:09.417Z,1008.61
2019-06-15T01:43:09.443Z,1008.62
2019-06-15T01:44:09.466Z,1008.53
2019-06-15T01:45:09.496Z,1008.51
2019-06-15T01:46:09.517Z,1008.48
2019-06-15T01:47:09.546Z,1008.43
2019-06-15T01:48:09.587Z,1008.4
2019-06-15T01:49:09.592Z,1008.4
2019-06-15T01:50:09.619Z,1008.4
2019-06-15T01:51:09.645Z,1008.38
2019-06-15T01:52:09.667Z,1008.38
2019-06-15T01:53:09.691Z,1008.34
2019-06-15T01:54:09.716Z,1008.32
2019-06-15T01:55:20.301Z,1008.31
2019-06-15T01:56:09.766Z,1008.33
2019-06-15T01:57:09.793Z,1008.36
2019-06-15T01:58:09.815Z,1008.33
2019-06-15T01:59:09.841Z,1008.39
2019-06-15T02:00:09.868Z,1008.4
2019-06-15T02:01:09.891Z,1008.37
2019-06-15T02:02:09.917Z,1008.35
2019-06-15T02:03:09.941Z,1008.29
2019-06-15T02:04:09.971Z,1008.27
2019-06-15T02:05:09.993Z,1008.23
2019-06-15T02:07:10.042Z,1008.21
2019-06-15T02:08:10.067Z,1008.23
2019-06-15T02:09:10.091Z,1008.14
2019-06-15T02:10:10.115Z,1008.19
2019-06-15T02:11:10.145Z,1008.15
2019-06-15T02:12:10.166Z,1008.18
2019-06-15T02:13:10.199Z,1008.28
2019-06-15T02:14:10.215Z,1008.3
2019-06-15T02:15:10.244Z,1008.4
2019-06-15T02:16:10.265Z,1008.54
2019-06-15T02:17:10.290Z,1008.59
2019-06-15T02:18:10.315Z,1008.62
2019-06-15T02:19:10.340Z,1008.69
2019-06-15T02:20:10.364Z,1008.75
2019-06-15T02:21:10.389Z,1008.72
2019-06-15T02:23:10.441Z,1008.78
2019-06-15T02:24:10.465Z,1008.72
2019-06-15T02:25:10.489Z,1008.72
2019-06-15T02:26:10.514Z,1008.7
2019-06-15T02:27:10.544Z,1008.67
2019-06-15T02:28:10.563Z,1008.6
2019-06-15T02:29:10.596Z,1008.57
2019-06-15T02:30:10.615Z,1008.53
2019-06-15T02:31:10.638Z,1008.49
2019-06-15T02:32:10.663Z,1008.47
2019-06-15T02:33:10.691Z,1008.43
2019-06-15T02:34:10.725Z,1008.41
2019-06-15T02:35:10.737Z,1008.42
2019-06-15T02:36:10.765Z,1008.4
2019-06-15T02:37:10.797Z,1008.37
2019-06-15T02:39:10.838Z,1008.32
2019-06-15T02:40:10.862Z,1008.3
2019-06-15T02:41:10.896Z,1008.31
2019-06-15T02:42:10.910Z,1008.25
2019-06-15T02:43:10.940Z,1008.27
2019-06-15T02:44:10.961Z,1008.15
2019-06-15T02:45:10.987Z,1008.12
2019-06-15T02:46:11.015Z,1008.11
2019-06-15T02:47:11.035Z,1008.12
2019-06-15T02:48:11.060Z,1008.12
2019-06-15T02:49:11.086Z,1008.07
2019-06-15T02:50:11.109Z,1008.05
2019-06-15T02:51:11.134Z,1008.01
2019-06-15T02:52:11.159Z,1008.02
2019-06-15T02:53:11.183Z,1007.98
2019-06-15T02:55:11.236Z,1007.96
2019-06-15T02:56:11.264Z,1007.88
2019-06-15T02:57:11.286Z,1007.87
2019-06-15T02:58:11.306Z,1007.81
2019-06-15T02:59:11.331Z,1007.74
2019-06-15T03:00:11.356Z,1007.62
2019-06-15T03:01:11.380Z,1007.5
2019-06-15T03:02:11.406Z,1007.47
2019-06-15T03:03:11.430Z,1007.29
2019-06-15T03:04:11.544Z,1007.2
2019-06-15T03:05:11.479Z,1007.13
2019-06-15T03:06:11.503Z,1007.12
2019-06-15T03:07:11.594Z,1006.98
2019-06-15T03:08:11.553Z,1006.8
2019-06-15T03:10:11.613Z,1006.68
2019-06-15T03:11:11.626Z,1006.6
2019-06-15T03:12:11.652Z,1006.5
2019-06-15T03:13:11.676Z,1006.56
2019-06-15T03:14:11.701Z,1006.43
2019-06-15T03:15:11.725Z,1006.31
2019-06-15T03:16:11.750Z,1006.22
2019-06-15T03:17:11.774Z,1006.15
2019-06-15T03:18:11.798Z,1006.01
2019-06-15T03:19:11.823Z,1005.99
2019-06-15T03:20:11.847Z,1005.82
2019-06-15T03:21:11.872Z,1005.85
2019-06-15T03:22:11.896Z,1005.94
2019-06-15T03:23:11.921Z,1005.74
2019-06-15T03:24:11.947Z,1005.75
2019-06-15T03:25:11.975Z,1005.79
2019-06-15T03:26:11.995Z,1005.83
2019-06-15T03:27:12.019Z,1005.77
2019-06-15T03:28:12.043Z,1006.04
2019-06-15T03:29:12.066Z,1005.97
2019-06-15T03:30:12.095Z,1005.88
2019-06-15T03:31:12.119Z,1005.84
2019-06-15T03:32:12.142Z,1005.78
2019-06-15T03:33:12.168Z,1005.74
2019-06-15T03:34:12.190Z,1005.62
2019-06-15T03:35:12.213Z,1005.74
2019-06-15T03:36:12.238Z,1005.58
2019-06-15T03:37:12.261Z,1005.56
2019-06-15T03:38:12.286Z,1005.65
2019-06-15T03:39:12.311Z,1005.49
2019-06-15T03:40:12.335Z,1005.62
2019-06-15T03:42:12.384Z,1005.6
2019-06-15T03:43:12.414Z,1005.66
2019-06-15T03:44:12.460Z,1005.61
2019-06-15T03:45:12.457Z,1005.62
2019-06-15T03:46:12.482Z,1005.56
2019-06-15T03:47:12.508Z,1005.49
2019-06-15T03:48:12.530Z,1005.6
2019-06-15T03:49:12.558Z,1005.57
2019-06-15T03:50:12.579Z,1005.57
2019-06-15T03:51:12.602Z,1005.63
2019-06-15T03:52:12.627Z,1005.62
2019-06-15T03:53:12.651Z,1005.77
2019-06-15T03:54:12.677Z,1005.83
2019-06-15T03:55:12.713Z,1005.83
2019-06-15T03:56:21.411Z,1005.83
2019-06-15T03:58:12.775Z,1005.84
2019-06-15T03:59:12.803Z,1005.75
2019-06-15T04:00:12.823Z,1005.84
2019-06-15T04:01:12.847Z,1005.82
2019-06-15T04:02:12.871Z,1005.74
2019-06-15T04:03:12.896Z,1005.83
2019-06-15T04:04:12.921Z,1005.85
2019-06-15T04:05:12.945Z,1005.79
2019-06-15T04:06:12.969Z,1005.87
2019-06-15T04:07:12.993Z,1005.81
2019-06-15T04:08:13.019Z,1005.85
2019-06-15T04:09:13.043Z,1005.88
2019-06-15T04:10:13.067Z,1005.89
2019-06-15T04:11:13.091Z,1006.01
2019-06-15T04:12:13.116Z,1005.92
2019-06-15T04:14:13.165Z,1005.92
2019-06-15T04:15:13.189Z,1006.01
2019-06-15T04:16:13.214Z,1005.94
2019-06-15T04:17:13.245Z,1005.99
2019-06-15T04:18:13.265Z,1005.97
2019-06-15T04:19:13.294Z,1005.98
2019-06-15T04:20:13.314Z,1006
2019-06-15T04:21:13.342Z,1005.95
2019-06-15T04:22:13.360Z,1006.04
2019-06-15T04:23:13.385Z,1005.92
2019-06-15T04:24:13.409Z,1006
2019-06-15T04:25:13.433Z,1005.92
2019-06-15T04:26:13.458Z,1005.87
2019-06-15T04:27:13.484Z,1005.85
2019-06-15T04:28:13.507Z,1005.89
2019-06-15T04:30:13.558Z,1005.9
2019-06-15T04:31:13.581Z,1005.93
2019-06-15T04:32:13.607Z,1005.88
2019-06-15T04:33:13.630Z,1005.91
2019-06-15T04:34:13.655Z,1005.89
2019-06-15T04:35:13.678Z,1005.9
2019-06-15T04:36:13.715Z,1005.9
2019-06-15T04:37:13.737Z,1006
2019-06-15T04:38:13.753Z,1005.93
2019-06-15T04:39:13.777Z,1005.89
2019-06-15T04:40:13.802Z,1005.93
2019-06-15T04:41:13.827Z,1005.91
2019-06-15T04:42:13.861Z,1005.81
2019-06-15T04:43:13.877Z,1005.77
2019-06-15T04:45:13.928Z,1005.83
2019-06-15T04:46:13.949Z,1005.68
2019-06-15T04:47:13.975Z,1005.71
2019-06-15T04:48:14.000Z,1005.73
2019-06-15T04:49:14.025Z,1005.66
2019-06-15T04:50:14.048Z,1005.7
2019-06-15T04:51:14.073Z,1005.69
2019-06-15T04:52:14.098Z,1005.71
2019-06-15T04:53:14.867Z,1005.6
2019-06-15T04:54:14.147Z,1005.55
2019-06-15T04:55:14.172Z,1005.48
2019-06-15T04:56:14.197Z,1005.42
2019-06-15T04:57:14.224Z,1005.45
2019-06-15T04:58:14.250Z,1005.5
2019-06-15T04:59:14.271Z,1005.48
2019-06-15T05:00:14.297Z,1005.48
2019-06-15T05:01:14.323Z,1005.58
2019-06-15T05:02:14.346Z,1005.65
2019-06-15T05:03:14.371Z,1005.81
2019-06-15T05:04:14.394Z,1005.81
2019-06-15T05:05:14.419Z,1005.73
2019-06-15T05:06:14.444Z,1005.82
2019-06-15T05:07:14.470Z,1005.78
2019-06-15T05:08:14.495Z,1005.84
2019-06-15T05:09:14.519Z,1005.79
2019-06-15T05:10:14.545Z,1005.85
2019-06-15T05:11:14.577Z,1005.87
2019-06-15T05:12:14.595Z,1005.83
2019-06-15T05:13:14.618Z,1005.8
2019-06-15T05:14:14.644Z,1005.77
2019-06-15T05:15:14.674Z,1005.83
2019-06-15T05:17:14.723Z,1005.87
2019-06-15T05:18:14.744Z,1005.99
2019-06-15T05:19:14.768Z,1006.16
2019-06-15T05:20:14.795Z,1006.16
2019-06-15T05:21:14.823Z,1006.08
2019-06-15T05:22:14.854Z,1006.04
2019-06-15T05:23:14.877Z,1006.11
2019-06-15T05:24:14.896Z,1006.17
2019-06-15T05:25:14.924Z,1006.17
2019-06-15T05:26:14.949Z,1006.08
2019-06-15T05:27:14.976Z,1006.09
2019-06-15T05:28:15.004Z,1006.02
2019-06-15T05:29:15.030Z,1005.98
2019-06-15T05:30:15.056Z,1006.04
2019-06-15T05:31:15.083Z,1006.09
2019-06-15T05:33:15.138Z,1006.08
2019-06-15T05:34:15.165Z,1006.1
2019-06-15T05:35:15.222Z,1006.1
2019-06-15T05:36:15.223Z,1006.03
2019-06-15T05:37:15.250Z,1006.03
2019-06-15T05:38:15.278Z,1006.01
2019-06-15T05:39:15.308Z,1005.93
2019-06-15T05:40:15.337Z,1006.03
2019-06-15T05:41:15.824Z,1005.93
2019-06-15T05:42:15.394Z,1005.84
2019-06-15T05:43:15.424Z,1005.68
2019-06-15T05:44:15.486Z,1005.72
2019-06-15T05:45:15.482Z,1005.79
2019-06-15T05:46:15.512Z,1005.85
2019-06-15T05:47:15.543Z,1005.8
2019-06-15T05:49:15.599Z,1005.94
2019-06-15T05:50:15.627Z,1005.73
2019-06-15T05:51:15.658Z,1005.77
2019-06-15T05:52:15.686Z,1005.8
2019-06-15T05:53:15.718Z,1005.76
2019-06-15T05:54:15.749Z,1005.74
2019-06-15T05:55:15.775Z,1005.84
2019-06-15T05:56:15.803Z,1005.92
2019-06-15T05:57:21.387Z,1006.01
2019-06-15T05:58:15.862Z,1005.98
2019-06-15T05:59:15.890Z,1006
2019-06-15T06:00:15.920Z,1005.98
2019-06-15T06:01:15.955Z,1006.03
2019-06-15T06:02:15.980Z,1006.02
2019-06-15T06:03:16.010Z,1005.97
2019-06-15T06:05:16.071Z,1005.92
2019-06-15T06:06:16.101Z,1005.88
2019-06-15T06:07:16.130Z,1005.87
2019-06-15T06:08:16.161Z,1005.99
2019-06-15T06:09:16.192Z,1005.82
2019-06-15T06:10:16.223Z,1005.83
2019-06-15T06:11:16.253Z,1005.74
2019-06-15T06:12:16.285Z,1005.8
2019-06-15T06:13:16.316Z,1005.78
2019-06-15T06:14:16.348Z,1005.91
2019-06-15T06:15:16.380Z,1005.78
2019-06-15T06:16:16.411Z,1005.81
2019-06-15T06:17:16.442Z,1005.81
2019-06-15T06:18:16.474Z,1005.74
2019-06-15T06:20:16.538Z,1005.74
2019-06-15T06:21:16.570Z,1005.69
2019-06-15T06:22:16.602Z,1005.73
2019-06-15T06:23:16.635Z,1005.74
2019-06-15T06:24:16.677Z,1005.67
2019-06-15T06:25:16.699Z,1005.66
2019-06-15T06:26:16.730Z,1005.45
2019-06-15T06:27:16.773Z,1005.62
2019-06-15T06:28:16.794Z,1005.79
2019-06-15T06:29:16.827Z,1005.79
2019-06-15T06:30:16.863Z,1005.75
2019-06-15T06:31:16.892Z,1005.86
2019-06-15T06:32:16.923Z,1005.78
2019-06-15T06:33:16.958Z,1005.7
2019-06-15T06:34:16.987Z,1005.82
2019-06-15T06:35:17.021Z,1005.88
2019-06-15T06:36:17.057Z,1005.75
2019-06-15T06:37:17.084Z,1005.62
2019-06-15T06:38:17.116Z,1005.75
2019-06-15T06:39:17.147Z,1005.69
2019-06-15T06:40:17.180Z,1005.73
2019-06-15T06:41:17.213Z,1005.58
2019-06-15T06:42:17.250Z,1005.72
2019-06-15T06:43:17.278Z,1005.84
2019-06-15T06:44:17.351Z,1005.82
2019-06-15T06:45:17.343Z,1005.64
2019-06-15T06:46:17.377Z,1005.69
2019-06-15T06:47:17.409Z,1005.69
2019-06-15T06:48:17.442Z,1005.74
2019-06-15T06:49:17.475Z,1005.75
2019-06-15T06:50:17.514Z,1005.74
2019-06-15T06:52:17.575Z,1005.79
2019-06-15T06:53:17.606Z,1005.86
2019-06-15T06:54:17.639Z,1005.82
2019-06-15T06:55:17.710Z,1005.81
2019-06-15T06:56:17.705Z,1005.97
2019-06-15T06:57:17.739Z,1005.85
2019-06-15T06:58:17.772Z,1005.91
2019-06-15T06:59:17.805Z,1005.92
2019-06-15T07:00:17.839Z,1006.09
2019-06-15T07:01:17.871Z,1006.1
2019-06-15T07:02:17.905Z,1006.15
2019-06-15T07:03:17.948Z,1006.13
2019-06-15T07:04:17.972Z,1006.1
2019-06-15T07:05:18.005Z,1006.04
2019-06-15T07:06:18.038Z,1006.07
2019-06-15T07:08:18.105Z,1006.09
2019-06-15T07:09:18.138Z,1006.11
2019-06-15T07:10:18.172Z,1005.7
2019-06-15T07:11:18.206Z,1005.92
2019-06-15T07:12:18.238Z,1005.58
2019-06-15T07:13:18.272Z,1005.72
2019-06-15T07:14:18.310Z,1005.74
2019-06-15T07:15:18.339Z,1005.72
2019-06-15T07:16:18.374Z,1005.67
2019-06-15T07:17:18.409Z,1005.61
2019-06-15T07:18:18.437Z,1005.55
2019-06-15T07:19:18.476Z,1005.57
2019-06-15T07:20:18.503Z,1005.49
2019-06-15T07:21:18.535Z,1005.61
2019-06-15T07:22:18.568Z,1005.54
2019-06-15T07:24:18.632Z,1005.59
2019-06-15T07:25:18.664Z,1005.58
2019-06-15T07:26:18.698Z,1005.45
2019-06-15T07:27:18.730Z,1005.34
2019-06-15T07:28:18.760Z,1005.35
2019-06-15T07:29:18.792Z,1005.45
2019-06-15T07:30:18.825Z,1005.61
2019-06-15T07:31:18.859Z,1005.32
2019-06-15T07:32:18.895Z,1005.93
2019-06-15T07:33:18.920Z,1005.25
2019-06-15T07:34:18.952Z,1005.2
2019-06-15T07:35:18.983Z,1005.27
2019-06-15T07:36:19.015Z,1005.72
2019-06-15T07:37:19.053Z,1005.88
2019-06-15T07:38:19.078Z,1005.79
2019-06-15T07:40:19.142Z,1005.21
2019-06-15T07:41:19.174Z,1005.27
2019-06-15T07:42:19.213Z,1005.23
2019-06-15T07:43:19.237Z,1005.31
2019-06-15T07:44:19.272Z,1005.23
2019-06-15T07:45:19.302Z,1005.22
2019-06-15T07:46:19.331Z,1005.17
2019-06-15T07:47:19.369Z,1005.15
2019-06-15T07:48:19.395Z,1005.08
2019-06-15T07:49:19.436Z,1005.06
2019-06-15T07:50:19.457Z,1005.07
2019-06-15T07:51:19.495Z,1005.04
2019-06-15T07:52:19.520Z,1005.12
2019-06-15T07:53:19.552Z,1005.09
2019-06-15T07:55:19.623Z,1005.23
2019-06-15T07:56:19.658Z,1005.21
2019-06-15T07:57:19.675Z,1005.14
2019-06-15T07:58:24.410Z,1005.16
2019-06-15T07:59:19.739Z,1005.68
2019-06-15T08:00:19.767Z,1005.64
2019-06-15T08:01:19.799Z,1005.69
2019-06-15T08:02:19.830Z,1005.73
2019-06-15T08:03:19.860Z,1005.74
2019-06-15T08:04:19.893Z,1005.73
2019-06-15T08:05:19.924Z,1005.77
2019-06-15T08:06:19.957Z,1005.83
2019-06-15T08:07:19.987Z,1005.85
2019-06-15T08:08:20.020Z,1005.88
2019-06-15T08:09:20.053Z,1005.84
2019-06-15T08:10:20.085Z,1005.91
2019-06-15T08:11:20.117Z,1005.86
2019-06-15T08:12:20.150Z,1005.85
2019-06-15T08:13:20.183Z,1005.85
2019-06-15T08:14:20.223Z,1005.77
2019-06-15T08:15:20.255Z,1005.79
2019-06-15T08:16:20.283Z,1005.81
2019-06-15T08:17:20.316Z,1005.75
2019-06-15T08:18:20.348Z,1005.81
2019-06-15T08:19:20.382Z,1005.64
2019-06-15T08:20:20.417Z,1005.58
2019-06-15T08:21:20.450Z,1005.64
2019-06-15T08:22:20.485Z,1005.66
2019-06-15T08:23:20.515Z,1005.48
2019-06-15T08:24:20.549Z,1005.45
2019-06-15T08:25:20.583Z,1005.2
2019-06-15T08:27:20.670Z,1005.01
2019-06-15T08:28:20.683Z,1005.12
2019-06-15T08:29:20.716Z,1005.25
2019-06-15T08:30:20.750Z,1005.29
2019-06-15T08:31:20.785Z,1005.38
2019-06-15T08:32:20.817Z,1005.37
2019-06-15T08:33:20.848Z,1005.26
2019-06-15T08:34:20.882Z,1005.49
2019-06-15T08:35:20.916Z,1005.41
2019-06-15T08:36:20.947Z,1005.41
2019-06-15T08:37:20.985Z,1005.31
2019-06-15T08:38:21.014Z,1005.29
2019-06-15T08:39:21.047Z,1005.22
2019-06-15T08:40:21.089Z,1005.31
2019-06-15T08:41:21.113Z,1005.32
2019-06-15T08:43:21.181Z,1005.33
2019-06-15T08:44:21.215Z,1005.45
2019-06-15T08:45:21.247Z,1005.39
2019-06-15T08:46:21.280Z,1005.3
2019-06-15T08:47:21.313Z,1005.27
2019-06-15T08:48:21.390Z,1005.27
2019-06-15T08:49:21.382Z,1005.25
2019-06-15T08:50:21.414Z,1005.22
2019-06-15T08:51:21.468Z,1005.19
2019-06-15T08:52:21.480Z,1005.08
2019-06-15T08:53:21.532Z,1005.03
2019-06-15T08:54:21.548Z,1005.09
2019-06-15T08:55:21.581Z,1005.01
2019-06-15T08:56:21.615Z,1004.96
2019-06-15T08:57:21.649Z,1004.92
2019-06-15T08:59:21.716Z,1004.91
2019-06-15T09:00:21.750Z,1004.86
2019-06-15T09:01:21.783Z,1004.93
2019-06-15T09:02:21.816Z,1004.85
2019-06-15T09:03:21.850Z,1004.93
2019-06-15T09:04:21.885Z,1004.84
2019-06-15T09:05:21.918Z,1004.83
2019-06-15T09:06:21.950Z,1004.84
2019-06-15T09:07:21.985Z,1004.85
2019-06-15T09:08:22.019Z,1004.85
2019-06-15T09:09:22.051Z,1004.84
2019-06-15T09:10:22.087Z,1004.77
2019-06-15T09:11:22.121Z,1004.73
2019-06-15T09:12:24.317Z,1004.72
2019-06-15T09:13:22.189Z,1004.76
2019-06-15T09:15:22.256Z,1004.76
2019-06-15T09:16:25.050Z,1004.74
2019-06-15T09:17:22.321Z,1004.79
2019-06-15T09:18:22.363Z,1004.74
2019-06-15T09:19:22.390Z,1004.76
2019-06-15T09:20:22.423Z,1004.73
2019-06-15T09:21:22.457Z,1004.65
2019-06-15T09:22:22.491Z,1004.68
2019-06-15T09:23:22.528Z,1004.64
2019-06-15T09:24:22.559Z,1004.64
2019-06-15T09:25:22.591Z,1004.64
2019-06-15T09:26:22.626Z,1004.66
2019-06-15T09:27:22.662Z,1004.66
2019-06-15T09:28:22.694Z,1004.73
2019-06-15T09:30:22.762Z,1004.61
2019-06-15T09:31:22.795Z,1004.6
2019-06-15T09:32:22.828Z,1004.56
2019-06-15T09:33:22.862Z,1004.47
2019-06-15T09:34:22.898Z,1004.49
2019-06-15T09:35:22.931Z,1004.46
2019-06-15T09:36:22.973Z,1004.45
2019-06-15T09:37:22.997Z,1004.35
2019-06-15T09:38:23.029Z,1004.41
2019-06-15T09:39:23.068Z,1004.37
2019-06-15T09:40:23.098Z,1004.33
2019-06-15T09:41:23.132Z,1004.39
2019-06-15T09:42:23.168Z,1004.36
2019-06-15T09:43:23.199Z,1004.45
2019-06-15T09:44:23.233Z,1004.48
2019-06-15T09:45:23.267Z,1004.4
2019-06-15T09:46:23.300Z,1004.43
2019-06-15T09:47:23.335Z,1004.38
2019-06-15T09:48:23.368Z,1004.37
2019-06-15T09:49:23.400Z,1004.32
2019-06-15T09:50:23.434Z,1004.29
2019-06-15T09:51:23.468Z,1004.28
2019-06-15T09:52:23.502Z,1004.28
2019-06-15T09:53:23.535Z,1004.22
2019-06-15T09:54:23.568Z,1004.2
2019-06-15T09:55:23.605Z,1004.09
2019-06-15T09:56:23.635Z,1004.14
2019-06-15T09:57:23.669Z,1004.1
2019-06-15T09:58:23.702Z,1004.12
2019-06-15T09:59:26.232Z,1004.13
2019-06-15T10:00:23.774Z,1004.05
2019-06-15T10:02:23.835Z,1004.08
2019-06-15T10:03:23.868Z,1004.08
2019-06-15T10:04:23.914Z,1004.05
2019-06-15T10:05:23.935Z,1004.05
2019-06-15T10:06:23.971Z,1004.1
2019-06-15T10:07:24.001Z,1004.12
2019-06-15T10:08:24.034Z,1004.11
2019-06-15T10:09:24.068Z,1004.13
2019-06-15T10:10:24.101Z,1004.15
2019-06-15T10:11:24.133Z,1004.21
2019-06-15T10:12:24.165Z,1004.21
2019-06-15T10:13:24.211Z,1004.22
2019-06-15T10:14:24.234Z,1004.24
2019-06-15T10:15:24.265Z,1004.2
2019-06-15T10:16:24.297Z,1004.17
2019-06-15T10:18:24.364Z,1004.2
2019-06-15T10:19:24.396Z,1004.19
2019-06-15T10:20:24.449Z,1004.21
2019-06-15T10:21:24.463Z,1004.15
2019-06-15T10:22:24.496Z,1004.15
2019-06-15T10:23:24.535Z,1004.24
2019-06-15T10:24:24.566Z,1004.27
2019-06-15T10:25:24.595Z,1004.28
2019-06-15T10:26:24.627Z,1004.28
2019-06-15T10:27:24.667Z,1004.28
2019-06-15T10:28:24.693Z,1004.26
2019-06-15T10:29:24.735Z,1004.29
2019-06-15T10:30:24.759Z,1004.22
2019-06-15T10:31:24.794Z,1004.26
2019-06-15T10:32:24.826Z,1004.23
2019-06-15T10:34:24.892Z,1004.25
2019-06-15T10:35:24.927Z,1004.26
2019-06-15T10:36:24.959Z,1004.19
2019-06-15T10:37:24.991Z,1004.19
2019-06-15T10:38:25.026Z,1004.18
2019-06-15T10:39:25.060Z,1004.2
2019-06-15T10:40:25.091Z,1004.24
2019-06-15T10:41:25.125Z,1004.19
2019-06-15T10:42:25.257Z,1004.2
2019-06-15T10:43:25.192Z,1004.24
2019-06-15T10:44:25.222Z,1004.24
2019-06-15T10:45:25.257Z,1004.3
2019-06-15T10:46:25.289Z,1004.27
2019-06-15T10:47:25.325Z,1004.32
2019-06-15T10:48:25.354Z,1004.31
2019-06-15T10:50:25.421Z,1004.27
2019-06-15T10:51:25.454Z,1004.27
2019-06-15T10:52:25.486Z,1004.27
2019-06-15T10:53:25.519Z,1004.21
2019-06-15T10:54:25.553Z,1004.3
2019-06-15T10:55:25.586Z,1004.33
2019-06-15T10:56:25.619Z,1004.33
2019-06-15T10:57:25.679Z,1004.35
2019-06-15T10:58:25.685Z,1004.33
2019-06-15T10:59:25.716Z,1004.38
2019-06-15T11:00:25.752Z,1004.4
2019-06-15T11:01:25.783Z,1004.36
2019-06-15T11:02:25.818Z,1004.38
2019-06-15T11:03:25.848Z,1004.39
2019-06-15T11:05:25.918Z,1004.35
2019-06-15T11:06:25.972Z,1004.38
2019-06-15T11:07:25.980Z,1004.35
2019-06-15T11:08:26.012Z,1004.36
2019-06-15T11:09:26.045Z,1004.36
2019-06-15T11:10:26.081Z,1004.34
2019-06-15T11:11:26.110Z,1004.4
2019-06-15T11:12:26.142Z,1004.37
2019-06-15T11:13:26.173Z,1004.39
2019-06-15T11:14:26.206Z,1004.39
2019-06-15T11:15:26.238Z,1004.39
2019-06-15T11:16:26.276Z,1004.39
2019-06-15T11:17:26.305Z,1004.4
2019-06-15T11:18:26.335Z,1004.41
2019-06-15T11:19:26.367Z,1004.42
2019-06-15T11:20:26.400Z,1004.44
2019-06-15T11:21:26.481Z,1004.36
2019-06-15T11:22:26.464Z,1004.39
2019-06-15T11:23:26.496Z,1004.38
2019-06-15T11:24:26.527Z,1004.33
2019-06-15T11:25:26.559Z,1004.34
2019-06-15T11:26:26.591Z,1004.35
2019-06-15T11:27:26.625Z,1004.32
2019-06-15T11:28:26.655Z,1004.3
2019-06-15T11:29:26.687Z,1004.27
2019-06-15T11:30:26.720Z,1004.29
2019-06-15T11:31:26.752Z,1004.31
2019-06-15T11:32:26.783Z,1004.3
2019-06-15T11:33:26.820Z,1004.35
2019-06-15T11:34:26.848Z,1004.32
2019-06-15T11:35:26.879Z,1004.4
2019-06-15T11:37:26.944Z,1004.35
2019-06-15T11:38:26.976Z,1004.36
2019-06-15T11:39:27.007Z,1004.36
2019-06-15T11:40:27.050Z,1004.36
2019-06-15T11:41:27.071Z,1004.4
2019-06-15T11:42:27.104Z,1004.39
2019-06-15T11:43:27.137Z,1004.42
2019-06-15T11:44:27.167Z,1004.41
2019-06-15T11:45:27.202Z,1004.42
2019-06-15T11:46:27.231Z,1004.43
2019-06-15T11:47:27.264Z,1004.41
2019-06-15T11:48:27.297Z,1004.45
2019-06-15T11:49:27.338Z,1004.41
2019-06-15T11:50:27.360Z,1004.39
2019-06-15T11:51:27.397Z,1004.33
2019-06-15T11:53:27.457Z,1004.33
2019-06-15T11:54:27.490Z,1004.33
2019-06-15T11:55:38.882Z,1004.35
2019-06-15T11:56:27.554Z,1004.3
2019-06-15T11:57:27.589Z,1004.33
2019-06-15T11:58:27.617Z,1004.28
2019-06-15T11:59:27.650Z,1004.25
2019-06-15T12:00:31.434Z,1004.27
2019-06-15T12:01:27.714Z,1004.27
2019-06-15T12:02:27.755Z,1004.31
2019-06-15T12:03:27.783Z,1004.34
2019-06-15T12:04:27.812Z,1004.42
2019-06-15T12:05:27.844Z,1004.37
2019-06-15T12:06:27.876Z,1004.36
2019-06-15T12:07:27.909Z,1004.35
2019-06-15T12:09:27.973Z,1004.43
2019-06-15T12:10:28.006Z,1004.47
2019-06-15T12:11:28.039Z,1004.36
2019-06-15T12:12:28.071Z,1004.37
2019-06-15T12:13:28.105Z,1004.36
2019-06-15T12:14:28.138Z,1004.4
2019-06-15T12:15:28.171Z,1004.38
2019-06-15T12:16:28.205Z,1004.38
2019-06-15T12:17:28.251Z,1004.38
2019-06-15T12:18:28.266Z,1004.37
2019-06-15T12:19:28.298Z,1004.37
2019-06-15T12:20:28.331Z,1004.39
2019-06-15T12:21:28.369Z,1004.43
2019-06-15T12:22:28.398Z,1004.37
2019-06-15T12:23:28.427Z,1004.32
2019-06-15T12:25:28.493Z,1004.37
2019-06-15T12:26:28.526Z,1004.38
2019-06-15T12:27:28.556Z,1004.46
2019-06-15T12:28:28.589Z,1004.46
2019-06-15T12:29:28.622Z,1004.4
2019-06-15T12:30:28.654Z,1004.38
2019-06-15T12:31:28.687Z,1004.3
2019-06-15T12:32:28.719Z,1004.37
2019-06-15T12:33:28.789Z,1004.35
2019-06-15T12:34:28.783Z,1004.29
2019-06-15T12:35:28.815Z,1004.35
2019-06-15T12:36:28.848Z,1004.39
2019-06-15T12:37:28.879Z,1004.41
2019-06-15T12:38:28.912Z,1004.43
2019-06-15T12:40:28.983Z,1004.44
2019-06-15T12:41:29.009Z,1004.47
2019-06-15T12:42:29.040Z,1004.4
2019-06-15T12:43:29.072Z,1004.44
2019-06-15T12:44:29.113Z,1004.42
2019-06-15T12:45:29.137Z,1004.44
2019-06-15T12:46:29.169Z,1004.41
2019-06-15T12:47:29.201Z,1004.44
2019-06-15T12:48:29.232Z,1004.42